VTSE/CJM METAR and TAF weather

Enter ICAO airport designator
Station Type Date Time Source
VTSE METAR 2020/09/19 06:00 UTC NOAA

VTSE 190600Z 26006KT 220V300 5000 RA FEW020 OVC080 24/24 Q1005 NOSIG


Station Type Date Time Source
VTSE Decoded METAR 2020/09/19 06:00 UTC NOAA

Station name not available
Sep 19, 2020 - 02:00 AM EDT / 2020.09.19 0600 UTC
Wind: from the W (260 degrees) at 7 MPH (6 KT) (direction variable):0
Visibility: 3 mile(s):0
Sky conditions: overcast
Weather: rain
Temperature: 75 F (24 C)
Dew Point: 75 F (24 C)
Relative Humidity: 100%
Pressure (altimeter): 29.68 in. Hg (1005 hPa)
ob: VTSE 190600Z 26006KT 220V300 5000 RA FEW020 OVC080 24/24 Q1005 NOSIG
cycle: 6

Station Type Date Time Source
VTSE TAF 2020/09/19 06:00 UTC NOAA

TAF VTSE 190500Z 1906/2006 25008KT 9000 -RA SCT020 BKN100
TEMPO 1906/1912 25010G20KT 3000 RA SCT015 OVC100
TEMPO 1912/1918 5000 RA SCT015 OVC100
TEMPO 1918/1924 3000 RA SCT015 OVC100
TEMPO 2000/2006 25010G20KT 5000 RA SCT015 OVC100

Example: see airport list